sensor_id;sensor_type;location;lat;lon;timestamp;P1;durP1;ratioP1;P2;durP2;ratioP2
71104;SDS011;58760;48.716;8.962;2023-12-29T00:01:29;6.78;;;2.45;;
71104;SDS011;58760;48.716;8.962;2023-12-29T00:03:56;5.15;;;2.10;;
71104;SDS011;58760;48.716;8.962;2023-12-29T00:06:21;6.15;;;1.95;;
71104;SDS011;58760;48.716;8.962;2023-12-29T00:08:46;7.38;;;2.72;;
71104;SDS011;58760;48.716;8.962;2023-12-29T00:11:21;4.95;;;2.30;;
71104;SDS011;58760;48.716;8.962;2023-12-29T00:13:47;5.22;;;2.15;;
71104;SDS011;58760;48.716;8.962;2023-12-29T00:16:13;5.68;;;2.42;;
71104;SDS011;58760;48.716;8.962;2023-12-29T00:18:38;7.78;;;2.25;;
71104;SDS011;58760;48.716;8.962;2023-12-29T00:21:04;5.25;;;2.38;;
71104;SDS011;58760;48.716;8.962;2023-12-29T00:23:30;6.20;;;2.40;;
71104;SDS011;58760;48.716;8.962;2023-12-29T00:25:55;5.13;;;2.30;;
71104;SDS011;58760;48.716;8.962;2023-12-29T00:28:21;4.60;;;2.00;;
71104;SDS011;58760;48.716;8.962;2023-12-29T00:30:46;4.97;;;2.28;;
71104;SDS011;58760;48.716;8.962;2023-12-29T00:33:11;5.28;;;2.50;;
71104;SDS011;58760;48.716;8.962;2023-12-29T00:35:37;5.32;;;2.17;;
71104;SDS011;58760;48.716;8.962;2023-12-29T00:40:29;6.72;;;2.13;;
71104;SDS011;58760;48.716;8.962;2023-12-29T00:42:55;7.28;;;2.33;;
71104;SDS011;58760;48.716;8.962;2023-12-29T00:45:20;4.82;;;2.08;;
71104;SDS011;58760;48.716;8.962;2023-12-29T00:47:46;5.22;;;2.13;;
71104;SDS011;58760;48.716;8.962;2023-12-29T00:50:13;5.78;;;2.20;;
71104;SDS011;58760;48.716;8.962;2023-12-29T00:52:39;6.03;;;1.95;;
71104;SDS011;58760;48.716;8.962;2023-12-29T00:55:04;5.97;;;2.28;;
71104;SDS011;58760;48.716;8.962;2023-12-29T00:57:30;4.90;;;2.03;;
71104;SDS011;58760;48.716;8.962;2023-12-29T00:59:56;8.00;;;2.40;;
71104;SDS011;58760;48.716;8.962;2023-12-29T01:02:21;4.50;;;2.13;;
71104;SDS011;58760;48.716;8.962;2023-12-29T01:04:46;5.97;;;2.30;;
71104;SDS011;58760;48.716;8.962;2023-12-29T01:07:12;5.50;;;1.98;;
71104;SDS011;58760;48.716;8.962;2023-12-29T01:09:38;5.20;;;2.00;;
71104;SDS011;58760;48.716;8.962;2023-12-29T01:12:05;4.78;;;2.35;;
71104;SDS011;58760;48.716;8.962;2023-12-29T01:14:31;5.50;;;2.20;;
71104;SDS011;58760;48.716;8.962;2023-12-29T01:16:56;6.05;;;2.13;;
71104;SDS011;58760;48.716;8.962;2023-12-29T01:19:22;5.85;;;2.30;;
71104;SDS011;58760;48.716;8.962;2023-12-29T01:21:48;4.97;;;2.05;;
71104;SDS011;58760;48.716;8.962;2023-12-29T01:24:13;5.38;;;2.60;;
71104;SDS011;58760;48.716;8.962;2023-12-29T01:26:38;4.38;;;2.20;;
71104;SDS011;58760;48.716;8.962;2023-12-29T01:29:04;6.40;;;2.63;;
71104;SDS011;58760;48.716;8.962;2023-12-29T01:31:31;5.85;;;2.78;;
71104;SDS011;58760;48.716;8.962;2023-12-29T01:33:57;5.47;;;2.30;;
71104;SDS011;58760;48.716;8.962;2023-12-29T01:36:22;6.57;;;2.50;;
71104;SDS011;58760;48.716;8.962;2023-12-29T01:38:48;6.97;;;2.30;;
71104;SDS011;58760;48.716;8.962;2023-12-29T01:41:14;6.57;;;2.63;;
71104;SDS011;58760;48.716;8.962;2023-12-29T01:46:32;5.93;;;2.53;;
71104;SDS011;58760;48.716;8.962;2023-12-29T01:48:59;5.97;;;3.03;;
71104;SDS011;58760;48.716;8.962;2023-12-29T01:51:26;6.07;;;2.67;;
71104;SDS011;58760;48.716;8.962;2023-12-29T01:53:52;5.65;;;2.75;;
71104;SDS011;58760;48.716;8.962;2023-12-29T01:56:20;5.60;;;2.50;;
71104;SDS011;58760;48.716;8.962;2023-12-29T01:58:47;6.53;;;2.67;;
71104;SDS011;58760;48.716;8.962;2023-12-29T02:01:14;7.32;;;3.00;;
71104;SDS011;58760;48.716;8.962;2023-12-29T02:03:41;6.38;;;2.70;;
71104;SDS011;58760;48.716;8.962;2023-12-29T02:06:08;4.35;;;2.28;;
71104;SDS011;58760;48.716;8.962;2023-12-29T02:11:01;7.10;;;2.70;;
71104;SDS011;58760;48.716;8.962;2023-12-29T02:13:27;7.10;;;2.85;;
71104;SDS011;58760;48.716;8.962;2023-12-29T02:15:52;6.03;;;2.55;;
71104;SDS011;58760;48.716;8.962;2023-12-29T02:18:23;8.43;;;2.97;;
71104;SDS011;58760;48.716;8.962;2023-12-29T02:20:51;7.22;;;2.63;;
71104;SDS011;58760;48.716;8.962;2023-12-29T02:23:16;6.60;;;2.70;;
71104;SDS011;58760;48.716;8.962;2023-12-29T02:25:42;5.00;;;2.40;;
71104;SDS011;58760;48.716;8.962;2023-12-29T02:28:11;6.47;;;3.40;;
71104;SDS011;58760;48.716;8.962;2023-12-29T02:30:40;5.55;;;2.50;;
71104;SDS011;58760;48.716;8.962;2023-12-29T02:33:12;5.55;;;2.50;;
71104;SDS011;58760;48.716;8.962;2023-12-29T02:35:42;6.18;;;2.47;;
71104;SDS011;58760;48.716;8.962;2023-12-29T02:38:10;6.72;;;2.83;;
71104;SDS011;58760;48.716;8.962;2023-12-29T02:40:36;5.50;;;2.65;;
71104;SDS011;58760;48.716;8.962;2023-12-29T02:43:02;6.53;;;2.63;;
71104;SDS011;58760;48.716;8.962;2023-12-29T02:45:27;6.43;;;3.05;;
71104;SDS011;58760;48.716;8.962;2023-12-29T02:47:53;6.45;;;2.83;;
71104;SDS011;58760;48.716;8.962;2023-12-29T02:50:18;5.82;;;3.05;;
71104;SDS011;58760;48.716;8.962;2023-12-29T02:52:44;6.22;;;3.05;;
71104;SDS011;58760;48.716;8.962;2023-12-29T02:55:09;6.47;;;2.97;;
71104;SDS011;58760;48.716;8.962;2023-12-29T02:57:35;6.68;;;3.05;;
71104;SDS011;58760;48.716;8.962;2023-12-29T03:00:00;6.65;;;3.08;;
71104;SDS011;58760;48.716;8.962;2023-12-29T03:02:25;8.32;;;3.40;;
71104;SDS011;58760;48.716;8.962;2023-12-29T03:04:51;6.82;;;3.15;;
71104;SDS011;58760;48.716;8.962;2023-12-29T03:07:16;6.63;;;2.88;;
71104;SDS011;58760;48.716;8.962;2023-12-29T03:09:42;7.75;;;3.15;;
71104;SDS011;58760;48.716;8.962;2023-12-29T03:12:07;8.73;;;3.03;;
71104;SDS011;58760;48.716;8.962;2023-12-29T03:14:33;5.82;;;2.95;;
71104;SDS011;58760;48.716;8.962;2023-12-29T03:16:58;6.63;;;3.30;;
71104;SDS011;58760;48.716;8.962;2023-12-29T03:19:24;6.53;;;3.03;;
71104;SDS011;58760;48.716;8.962;2023-12-29T03:21:49;7.18;;;3.35;;
71104;SDS011;58760;48.716;8.962;2023-12-29T03:24:15;6.53;;;3.28;;
71104;SDS011;58760;48.716;8.962;2023-12-29T03:26:41;6.40;;;3.15;;
71104;SDS011;58760;48.716;8.962;2023-12-29T03:29:06;7.15;;;3.30;;
71104;SDS011;58760;48.716;8.962;2023-12-29T03:31:32;7.68;;;3.28;;
71104;SDS011;58760;48.716;8.962;2023-12-29T03:33:57;5.70;;;2.90;;
71104;SDS011;58760;48.716;8.962;2023-12-29T03:36:22;7.40;;;3.42;;
71104;SDS011;58760;48.716;8.962;2023-12-29T03:38:48;8.02;;;3.42;;
71104;SDS011;58760;48.716;8.962;2023-12-29T03:41:14;6.40;;;3.38;;
71104;SDS011;58760;48.716;8.962;2023-12-29T03:43:39;6.88;;;2.97;;
71104;SDS011;58760;48.716;8.962;2023-12-29T03:46:14;6.35;;;3.00;;
71104;SDS011;58760;48.716;8.962;2023-12-29T03:48:41;5.70;;;2.88;;
71104;SDS011;58760;48.716;8.962;2023-12-29T03:51:07;7.32;;;3.10;;
71104;SDS011;58760;48.716;8.962;2023-12-29T03:53:32;9.13;;;3.13;;
71104;SDS011;58760;48.716;8.962;2023-12-29T03:55:57;6.80;;;3.00;;
71104;SDS011;58760;48.716;8.962;2023-12-29T03:58:23;5.95;;;3.08;;
71104;SDS011;58760;48.716;8.962;2023-12-29T04:00:48;8.40;;;3.15;;
71104;SDS011;58760;48.716;8.962;2023-12-29T04:03:13;9.65;;;3.72;;
71104;SDS011;58760;48.716;8.962;2023-12-29T04:05:39;8.52;;;3.28;;
71104;SDS011;58760;48.716;8.962;2023-12-29T04:08:04;6.38;;;2.92;;
71104;SDS011;58760;48.716;8.962;2023-12-29T04:10:30;9.18;;;3.40;;
71104;SDS011;58760;48.716;8.962;2023-12-29T04:12:55;6.82;;;3.63;;
71104;SDS011;58760;48.716;8.962;2023-12-29T04:15:20;8.75;;;3.20;;
71104;SDS011;58760;48.716;8.962;2023-12-29T04:17:46;7.53;;;3.72;;
71104;SDS011;58760;48.716;8.962;2023-12-29T04:20:11;6.88;;;2.92;;
71104;SDS011;58760;48.716;8.962;2023-12-29T04:22:37;5.63;;;2.70;;
71104;SDS011;58760;48.716;8.962;2023-12-29T04:25:02;6.22;;;3.25;;
71104;SDS011;58760;48.716;8.962;2023-12-29T04:27:28;5.88;;;2.92;;
71104;SDS011;58760;48.716;8.962;2023-12-29T04:29:53;10.40;;;3.15;;
71104;SDS011;58760;48.716;8.962;2023-12-29T04:32:18;6.43;;;2.95;;
71104;SDS011;58760;48.716;8.962;2023-12-29T04:34:44;5.68;;;2.97;;
71104;SDS011;58760;48.716;8.962;2023-12-29T04:37:09;6.38;;;2.90;;
71104;SDS011;58760;48.716;8.962;2023-12-29T04:39:34;10.32;;;2.92;;
71104;SDS011;58760;48.716;8.962;2023-12-29T04:42:00;5.60;;;2.80;;
71104;SDS011;58760;48.716;8.962;2023-12-29T04:44:25;6.40;;;3.00;;
71104;SDS011;58760;48.716;8.962;2023-12-29T04:46:51;5.10;;;2.63;;
71104;SDS011;58760;48.716;8.962;2023-12-29T04:49:16;7.97;;;2.65;;
71104;SDS011;58760;48.716;8.962;2023-12-29T04:51:41;7.82;;;2.85;;
71104;SDS011;58760;48.716;8.962;2023-12-29T04:54:07;7.18;;;3.20;;
71104;SDS011;58760;48.716;8.962;2023-12-29T04:56:32;5.90;;;2.70;;
71104;SDS011;58760;48.716;8.962;2023-12-29T04:58:57;5.88;;;2.75;;
71104;SDS011;58760;48.716;8.962;2023-12-29T05:01:24;5.47;;;3.00;;
71104;SDS011;58760;48.716;8.962;2023-12-29T05:03:49;6.35;;;2.90;;
71104;SDS011;58760;48.716;8.962;2023-12-29T05:06:15;8.23;;;2.90;;
71104;SDS011;58760;48.716;8.962;2023-12-29T05:08:40;6.65;;;3.13;;
71104;SDS011;58760;48.716;8.962;2023-12-29T05:11:05;6.18;;;2.85;;
71104;SDS011;58760;48.716;8.962;2023-12-29T05:13:31;7.03;;;3.03;;
71104;SDS011;58760;48.716;8.962;2023-12-29T05:15:56;7.22;;;3.00;;
71104;SDS011;58760;48.716;8.962;2023-12-29T05:18:21;6.68;;;3.03;;
71104;SDS011;58760;48.716;8.962;2023-12-29T05:20:47;5.82;;;3.10;;
71104;SDS011;58760;48.716;8.962;2023-12-29T05:23:12;6.53;;;3.10;;
71104;SDS011;58760;48.716;8.962;2023-12-29T05:25:38;5.78;;;2.97;;
71104;SDS011;58760;48.716;8.962;2023-12-29T05:28:04;8.27;;;3.10;;
71104;SDS011;58760;48.716;8.962;2023-12-29T05:30:29;6.97;;;2.92;;
71104;SDS011;58760;48.716;8.962;2023-12-29T05:32:56;8.02;;;3.13;;
71104;SDS011;58760;48.716;8.962;2023-12-29T05:35:22;5.65;;;3.13;;
71104;SDS011;58760;48.716;8.962;2023-12-29T05:37:47;6.22;;;3.05;;
71104;SDS011;58760;48.716;8.962;2023-12-29T05:40:13;6.30;;;3.10;;
71104;SDS011;58760;48.716;8.962;2023-12-29T05:42:38;6.15;;;3.00;;
71104;SDS011;58760;48.716;8.962;2023-12-29T05:45:03;6.13;;;3.28;;
71104;SDS011;58760;48.716;8.962;2023-12-29T05:47:29;8.02;;;3.28;;
71104;SDS011;58760;48.716;8.962;2023-12-29T05:49:55;7.07;;;3.20;;
71104;SDS011;58760;48.716;8.962;2023-12-29T05:52:20;7.53;;;3.47;;
71104;SDS011;58760;48.716;8.962;2023-12-29T05:54:46;6.75;;;3.10;;
71104;SDS011;58760;48.716;8.962;2023-12-29T05:57:11;7.70;;;3.60;;
71104;SDS011;58760;48.716;8.962;2023-12-29T05:59:37;6.75;;;3.28;;
71104;SDS011;58760;48.716;8.962;2023-12-29T06:02:03;7.43;;;3.67;;
71104;SDS011;58760;48.716;8.962;2023-12-29T06:04:28;6.03;;;3.22;;
71104;SDS011;58760;48.716;8.962;2023-12-29T06:06:54;6.28;;;3.20;;
71104;SDS011;58760;48.716;8.962;2023-12-29T06:09:19;8.02;;;3.20;;
71104;SDS011;58760;48.716;8.962;2023-12-29T06:11:44;5.90;;;3.05;;
71104;SDS011;58760;48.716;8.962;2023-12-29T06:14:10;6.78;;;2.85;;
71104;SDS011;58760;48.716;8.962;2023-12-29T06:16:35;5.72;;;2.78;;
71104;SDS011;58760;48.716;8.962;2023-12-29T06:19:01;6.43;;;3.25;;
71104;SDS011;58760;48.716;8.962;2023-12-29T06:21:26;5.63;;;3.10;;
71104;SDS011;58760;48.716;8.962;2023-12-29T06:23:52;7.80;;;2.95;;
71104;SDS011;58760;48.716;8.962;2023-12-29T06:26:17;7.55;;;2.78;;
71104;SDS011;58760;48.716;8.962;2023-12-29T06:28:46;7.18;;;3.17;;
71104;SDS011;58760;48.716;8.962;2023-12-29T06:31:12;5.47;;;2.78;;
71104;SDS011;58760;48.716;8.962;2023-12-29T06:33:41;5.30;;;2.72;;
71104;SDS011;58760;48.716;8.962;2023-12-29T06:36:07;7.35;;;2.80;;
71104;SDS011;58760;48.716;8.962;2023-12-29T06:38:33;6.15;;;2.40;;
71104;SDS011;58760;48.716;8.962;2023-12-29T06:41:02;5.50;;;2.80;;
71104;SDS011;58760;48.716;8.962;2023-12-29T06:43:29;6.22;;;2.83;;
71104;SDS011;58760;48.716;8.962;2023-12-29T06:45:54;6.38;;;2.60;;
71104;SDS011;58760;48.716;8.962;2023-12-29T06:48:20;5.45;;;2.70;;
71104;SDS011;58760;48.716;8.962;2023-12-29T06:50:46;5.05;;;2.58;;
71104;SDS011;58760;48.716;8.962;2023-12-29T06:53:11;6.88;;;2.90;;
71104;SDS011;58760;48.716;8.962;2023-12-29T06:55:37;5.28;;;2.50;;
71104;SDS011;58760;48.716;8.962;2023-12-29T06:58:03;5.82;;;3.03;;
71104;SDS011;58760;48.716;8.962;2023-12-29T07:00:29;6.15;;;2.58;;
71104;SDS011;58760;48.716;8.962;2023-12-29T07:02:54;6.03;;;2.90;;
71104;SDS011;58760;48.716;8.962;2023-12-29T07:05:20;5.28;;;2.58;;
71104;SDS011;58760;48.716;8.962;2023-12-29T07:07:45;5.95;;;2.70;;
71104;SDS011;58760;48.716;8.962;2023-12-29T07:10:14;6.07;;;2.90;;
71104;SDS011;58760;48.716;8.962;2023-12-29T07:12:42;6.38;;;2.60;;
71104;SDS011;58760;48.716;8.962;2023-12-29T07:15:08;7.07;;;3.05;;
71104;SDS011;58760;48.716;8.962;2023-12-29T07:17:34;5.80;;;2.72;;
71104;SDS011;58760;48.716;8.962;2023-12-29T07:19:59;6.30;;;2.70;;
71104;SDS011;58760;48.716;8.962;2023-12-29T07:22:25;6.70;;;2.95;;
71104;SDS011;58760;48.716;8.962;2023-12-29T07:24:50;5.93;;;2.58;;
71104;SDS011;58760;48.716;8.962;2023-12-29T07:27:15;7.22;;;3.10;;
71104;SDS011;58760;48.716;8.962;2023-12-29T07:29:41;5.13;;;2.38;;
71104;SDS011;58760;48.716;8.962;2023-12-29T07:32:06;6.22;;;2.80;;
71104;SDS011;58760;48.716;8.962;2023-12-29T07:34:32;5.50;;;2.72;;
71104;SDS011;58760;48.716;8.962;2023-12-29T07:36:57;5.90;;;2.70;;
71104;SDS011;58760;48.716;8.962;2023-12-29T07:39:26;6.30;;;2.50;;
71104;SDS011;58760;48.716;8.962;2023-12-29T07:41:51;6.05;;;3.03;;
71104;SDS011;58760;48.716;8.962;2023-12-29T07:44:17;5.30;;;2.45;;
71104;SDS011;58760;48.716;8.962;2023-12-29T07:46:43;5.70;;;2.65;;
71104;SDS011;58760;48.716;8.962;2023-12-29T07:49:12;5.68;;;2.88;;
71104;SDS011;58760;48.716;8.962;2023-12-29T07:51:40;5.40;;;2.45;;
71104;SDS011;58760;48.716;8.962;2023-12-29T07:54:07;5.75;;;2.75;;
71104;SDS011;58760;48.716;8.962;2023-12-29T07:56:33;6.20;;;2.72;;
71104;SDS011;58760;48.716;8.962;2023-12-29T07:58:59;6.47;;;2.83;;
71104;SDS011;58760;48.716;8.962;2023-12-29T08:01:24;5.88;;;2.78;;
71104;SDS011;58760;48.716;8.962;2023-12-29T08:03:51;7.13;;;2.80;;
71104;SDS011;58760;48.716;8.962;2023-12-29T08:06:16;5.22;;;2.53;;
71104;SDS011;58760;48.716;8.962;2023-12-29T08:08:41;6.00;;;2.60;;
71104;SDS011;58760;48.716;8.962;2023-12-29T08:11:12;7.13;;;2.78;;
71104;SDS011;58760;48.716;8.962;2023-12-29T08:13:41;6.13;;;2.63;;
71104;SDS011;58760;48.716;8.962;2023-12-29T08:16:06;6.15;;;2.60;;
71104;SDS011;58760;48.716;8.962;2023-12-29T08:20:58;5.33;;;2.33;;
71104;SDS011;58760;48.716;8.962;2023-12-29T08:23:25;6.65;;;2.80;;
71104;SDS011;58760;48.716;8.962;2023-12-29T08:28:17;5.82;;;2.60;;
71104;SDS011;58760;48.716;8.962;2023-12-29T08:30:42;7.45;;;2.67;;
71104;SDS011;58760;48.716;8.962;2023-12-29T08:33:10;5.68;;;2.88;;
71104;SDS011;58760;48.716;8.962;2023-12-29T08:35:37;5.18;;;2.70;;
71104;SDS011;58760;48.716;8.962;2023-12-29T08:38:03;5.78;;;2.53;;
71104;SDS011;58760;48.716;8.962;2023-12-29T08:40:28;6.18;;;2.70;;
71104;SDS011;58760;48.716;8.962;2023-12-29T08:42:54;5.55;;;2.78;;
71104;SDS011;58760;48.716;8.962;2023-12-29T08:45:19;7.07;;;2.22;;
71104;SDS011;58760;48.716;8.962;2023-12-29T08:47:45;5.22;;;2.50;;
71104;SDS011;58760;48.716;8.962;2023-12-29T08:50:11;4.38;;;2.00;;
71104;SDS011;58760;48.716;8.962;2023-12-29T08:52:36;5.35;;;2.15;;
71104;SDS011;58760;48.716;8.962;2023-12-29T08:55:01;5.10;;;2.40;;
71104;SDS011;58760;48.716;8.962;2023-12-29T08:57:27;5.72;;;2.45;;
71104;SDS011;58760;48.716;8.962;2023-12-29T08:59:53;5.10;;;2.00;;
71104;SDS011;58760;48.716;8.962;2023-12-29T09:02:18;4.88;;;2.33;;
71104;SDS011;58760;48.716;8.962;2023-12-29T09:04:43;5.65;;;2.25;;
71104;SDS011;58760;48.716;8.962;2023-12-29T09:07:09;5.00;;;2.30;;
71104;SDS011;58760;48.716;8.962;2023-12-29T09:09:34;4.53;;;2.17;;
71104;SDS011;58760;48.716;8.962;2023-12-29T09:12:00;4.63;;;2.22;;
71104;SDS011;58760;48.716;8.962;2023-12-29T09:14:26;4.40;;;2.08;;
71104;SDS011;58760;48.716;8.962;2023-12-29T09:16:51;4.90;;;2.25;;
71104;SDS011;58760;48.716;8.962;2023-12-29T09:19:16;6.00;;;2.25;;
71104;SDS011;58760;48.716;8.962;2023-12-29T09:21:42;7.13;;;2.50;;
71104;SDS011;58760;48.716;8.962;2023-12-29T09:24:07;6.00;;;2.35;;
71104;SDS011;58760;48.716;8.962;2023-12-29T09:26:33;4.85;;;2.13;;
71104;SDS011;58760;48.716;8.962;2023-12-29T09:28:58;6.15;;;2.30;;
71104;SDS011;58760;48.716;8.962;2023-12-29T09:31:24;4.00;;;2.00;;
71104;SDS011;58760;48.716;8.962;2023-12-29T09:33:49;5.20;;;2.08;;
71104;SDS011;58760;48.716;8.962;2023-12-29T09:36:14;4.13;;;1.83;;
71104;SDS011;58760;48.716;8.962;2023-12-29T09:38:40;4.30;;;2.00;;
71104;SDS011;58760;48.716;8.962;2023-12-29T09:41:09;5.43;;;1.98;;
71104;SDS011;58760;48.716;8.962;2023-12-29T09:43:38;5.18;;;1.67;;
71104;SDS011;58760;48.716;8.962;2023-12-29T09:46:05;4.68;;;2.00;;
71104;SDS011;58760;48.716;8.962;2023-12-29T09:48:33;3.50;;;1.77;;
71104;SDS011;58760;48.716;8.962;2023-12-29T09:51:01;4.47;;;1.70;;
71104;SDS011;58760;48.716;8.962;2023-12-29T09:53:28;5.90;;;1.70;;
71104;SDS011;58760;48.716;8.962;2023-12-29T09:55:55;3.28;;;1.50;;
71104;SDS011;58760;48.716;8.962;2023-12-29T09:58:23;4.78;;;1.65;;
71104;SDS011;58760;48.716;8.962;2023-12-29T10:00:50;3.30;;;1.52;;
71104;SDS011;58760;48.716;8.962;2023-12-29T10:03:16;4.45;;;1.80;;
71104;SDS011;58760;48.716;8.962;2023-12-29T10:05:42;4.20;;;2.25;;
71104;SDS011;58760;48.716;8.962;2023-12-29T10:08:11;5.78;;;2.03;;
71104;SDS011;58760;48.716;8.962;2023-12-29T10:10:39;4.43;;;1.80;;
71104;SDS011;58760;48.716;8.962;2023-12-29T10:13:07;3.47;;;1.65;;
71104;SDS011;58760;48.716;8.962;2023-12-29T10:15:49;4.53;;;1.88;;
71104;SDS011;58760;48.716;8.962;2023-12-29T10:18:25;3.45;;;1.60;;
71104;SDS011;58760;48.716;8.962;2023-12-29T10:23:47;3.40;;;1.30;;
71104;SDS011;58760;48.716;8.962;2023-12-29T10:26:20;2.97;;;1.25;;
71104;SDS011;58760;48.716;8.962;2023-12-29T10:28:46;2.42;;;1.10;;
71104;SDS011;58760;48.716;8.962;2023-12-29T10:31:14;3.75;;;1.27;;
71104;SDS011;58760;48.716;8.962;2023-12-29T10:33:40;3.08;;;1.27;;
71104;SDS011;58760;48.716;8.962;2023-12-29T10:36:05;2.05;;;1.05;;
71104;SDS011;58760;48.716;8.962;2023-12-29T10:38:33;1.88;;;0.90;;
71104;SDS011;58760;48.716;8.962;2023-12-29T10:41:31;1.55;;;0.90;;
71104;SDS011;58760;48.716;8.962;2023-12-29T10:43:50;2.58;;;1.30;;
71104;SDS011;58760;48.716;8.962;2023-12-29T10:46:19;2.78;;;1.20;;
71104;SDS011;58760;48.716;8.962;2023-12-29T10:48:45;4.97;;;1.25;;
71104;SDS011;58760;48.716;8.962;2023-12-29T10:51:11;1.83;;;1.00;;
71104;SDS011;58760;48.716;8.962;2023-12-29T10:53:36;3.90;;;1.70;;
71104;SDS011;58760;48.716;8.962;2023-12-29T10:56:02;3.10;;;1.48;;
71104;SDS011;58760;48.716;8.962;2023-12-29T10:58:28;4.72;;;1.70;;
71104;SDS011;58760;48.716;8.962;2023-12-29T11:00:56;3.65;;;1.77;;
71104;SDS011;58760;48.716;8.962;2023-12-29T11:03:22;3.33;;;1.50;;
71104;SDS011;58760;48.716;8.962;2023-12-29T11:08:15;4.78;;;1.42;;
71104;SDS011;58760;48.716;8.962;2023-12-29T11:10:44;2.38;;;1.20;;
71104;SDS011;58760;48.716;8.962;2023-12-29T11:13:11;1.92;;;1.00;;
71104;SDS011;58760;48.716;8.962;2023-12-29T11:15:40;1.80;;;0.95;;
71104;SDS011;58760;48.716;8.962;2023-12-29T11:18:08;2.17;;;1.00;;
71104;SDS011;58760;48.716;8.962;2023-12-29T11:20:35;1.80;;;0.95;;
71104;SDS011;58760;48.716;8.962;2023-12-29T11:23:02;1.00;;;0.80;;
71104;SDS011;58760;48.716;8.962;2023-12-29T11:25:29;2.70;;;1.05;;
71104;SDS011;58760;48.716;8.962;2023-12-29T11:27:54;2.60;;;0.80;;
71104;SDS011;58760;48.716;8.962;2023-12-29T11:30:21;1.45;;;0.80;;
71104;SDS011;58760;48.716;8.962;2023-12-29T11:32:49;1.85;;;0.63;;
71104;SDS011;58760;48.716;8.962;2023-12-29T11:35:26;1.23;;;0.75;;
71104;SDS011;58760;48.716;8.962;2023-12-29T11:40:31;1.75;;;0.80;;
71104;SDS011;58760;48.716;8.962;2023-12-29T11:43:04;1.55;;;0.90;;
71104;SDS011;58760;48.716;8.962;2023-12-29T11:45:33;1.48;;;0.88;;
71104;SDS011;58760;48.716;8.962;2023-12-29T11:48:01;2.08;;;0.80;;
71104;SDS011;58760;48.716;8.962;2023-12-29T11:50:34;1.35;;;0.80;;
71104;SDS011;58760;48.716;8.962;2023-12-29T11:53:08;2.90;;;1.00;;
71104;SDS011;58760;48.716;8.962;2023-12-29T11:55:37;0.93;;;0.70;;
71104;SDS011;58760;48.716;8.962;2023-12-29T11:58:04;2.08;;;0.90;;
71104;SDS011;58760;48.716;8.962;2023-12-29T12:00:48;1.73;;;0.88;;
71104;SDS011;58760;48.716;8.962;2023-12-29T12:03:14;2.17;;;0.98;;
71104;SDS011;58760;48.716;8.962;2023-12-29T12:05:50;3.13;;;0.93;;
71104;SDS011;58760;48.716;8.962;2023-12-29T12:08:31;2.45;;;1.00;;
71104;SDS011;58760;48.716;8.962;2023-12-29T12:14:02;1.90;;;0.80;;
71104;SDS011;58760;48.716;8.962;2023-12-29T12:16:46;2.15;;;0.98;;
71104;SDS011;58760;48.716;8.962;2023-12-29T12:19:15;1.38;;;0.80;;
71104;SDS011;58760;48.716;8.962;2023-12-29T12:21:46;2.28;;;0.98;;
71104;SDS011;58760;48.716;8.962;2023-12-29T12:24:16;2.35;;;0.90;;
71104;SDS011;58760;48.716;8.962;2023-12-29T12:26:43;1.52;;;0.88;;
71104;SDS011;58760;48.716;8.962;2023-12-29T12:29:09;2.05;;;0.70;;
71104;SDS011;58760;48.716;8.962;2023-12-29T12:31:34;3.83;;;1.05;;
71104;SDS011;58760;48.716;8.962;2023-12-29T12:34:00;1.27;;;0.65;;
71104;SDS011;58760;48.716;8.962;2023-12-29T12:36:26;1.83;;;0.82;;
71104;SDS011;58760;48.716;8.962;2023-12-29T12:38:52;1.60;;;0.80;;
71104;SDS011;58760;48.716;8.962;2023-12-29T12:41:19;1.48;;;0.65;;
71104;SDS011;58760;48.716;8.962;2023-12-29T12:43:47;1.88;;;0.80;;
71104;SDS011;58760;48.716;8.962;2023-12-29T12:46:21;2.83;;;0.82;;
71104;SDS011;58760;48.716;8.962;2023-12-29T12:48:49;2.00;;;0.73;;
71104;SDS011;58760;48.716;8.962;2023-12-29T12:51:15;2.83;;;0.90;;
71104;SDS011;58760;48.716;8.962;2023-12-29T12:53:44;1.13;;;0.60;;
71104;SDS011;58760;48.716;8.962;2023-12-29T12:56:10;3.13;;;0.93;;
71104;SDS011;58760;48.716;8.962;2023-12-29T12:58:36;1.67;;;0.70;;
71104;SDS011;58760;48.716;8.962;2023-12-29T13:01:02;2.55;;;0.75;;
71104;SDS011;58760;48.716;8.962;2023-12-29T13:03:27;1.60;;;0.77;;
71104;SDS011;58760;48.716;8.962;2023-12-29T13:05:53;3.05;;;0.90;;
71104;SDS011;58760;48.716;8.962;2023-12-29T13:08:19;1.80;;;0.77;;
71104;SDS011;58760;48.716;8.962;2023-12-29T13:10:45;2.28;;;0.90;;
71104;SDS011;58760;48.716;8.962;2023-12-29T13:13:10;3.33;;;0.90;;
71104;SDS011;58760;48.716;8.962;2023-12-29T13:15:48;1.15;;;0.70;;
71104;SDS011;58760;48.716;8.962;2023-12-29T13:18:17;1.40;;;0.70;;
71104;SDS011;58760;48.716;8.962;2023-12-29T13:20:53;2.58;;;1.10;;
71104;SDS011;58760;48.716;8.962;2023-12-29T13:23:18;2.15;;;1.00;;
71104;SDS011;58760;48.716;8.962;2023-12-29T13:25:44;2.30;;;0.80;;
71104;SDS011;58760;48.716;8.962;2023-12-29T13:28:12;1.30;;;0.73;;
71104;SDS011;58760;48.716;8.962;2023-12-29T13:30:38;1.73;;;0.70;;
71104;SDS011;58760;48.716;8.962;2023-12-29T13:36:10;1.90;;;0.90;;
71104;SDS011;58760;48.716;8.962;2023-12-29T13:38:44;2.13;;;0.85;;
71104;SDS011;58760;48.716;8.962;2023-12-29T13:43:44;2.00;;;0.90;;
71104;SDS011;58760;48.716;8.962;2023-12-29T13:46:11;1.95;;;0.80;;
71104;SDS011;58760;48.716;8.962;2023-12-29T13:48:38;1.25;;;0.90;;
71104;SDS011;58760;48.716;8.962;2023-12-29T13:51:05;1.95;;;0.80;;
71104;SDS011;58760;48.716;8.962;2023-12-29T13:53:31;1.85;;;1.00;;
71104;SDS011;58760;48.716;8.962;2023-12-29T13:56:10;1.92;;;1.00;;
71104;SDS011;58760;48.716;8.962;2023-12-29T13:58:36;1.67;;;0.98;;
71104;SDS011;58760;48.716;8.962;2023-12-29T14:01:03;2.08;;;1.00;;
71104;SDS011;58760;48.716;8.962;2023-12-29T14:03:54;2.50;;;1.00;;
71104;SDS011;58760;48.716;8.962;2023-12-29T14:06:59;2.38;;;1.00;;
71104;SDS011;58760;48.716;8.962;2023-12-29T14:09:17;2.08;;;0.93;;
71104;SDS011;58760;48.716;8.962;2023-12-29T14:11:44;2.35;;;1.00;;
71104;SDS011;58760;48.716;8.962;2023-12-29T14:14:11;2.85;;;1.10;;
71104;SDS011;58760;48.716;8.962;2023-12-29T14:16:42;3.45;;;1.00;;
71104;SDS011;58760;48.716;8.962;2023-12-29T14:19:08;2.90;;;1.40;;
71104;SDS011;58760;48.716;8.962;2023-12-29T14:21:33;3.92;;;1.30;;
71104;SDS011;58760;48.716;8.962;2023-12-29T14:24:09;2.50;;;0.80;;
71104;SDS011;58760;48.716;8.962;2023-12-29T14:26:38;2.00;;;1.17;;
71104;SDS011;58760;48.716;8.962;2023-12-29T14:29:10;4.20;;;1.17;;
71104;SDS011;58760;48.716;8.962;2023-12-29T14:31:39;2.22;;;1.10;;
71104;SDS011;58760;48.716;8.962;2023-12-29T14:34:06;2.42;;;0.98;;
71104;SDS011;58760;48.716;8.962;2023-12-29T14:36:32;2.08;;;1.10;;
71104;SDS011;58760;48.716;8.962;2023-12-29T14:38:58;2.63;;;1.00;;
71104;SDS011;58760;48.716;8.962;2023-12-29T14:41:24;4.15;;;1.10;;
71104;SDS011;58760;48.716;8.962;2023-12-29T14:43:50;2.05;;;0.93;;
71104;SDS011;58760;48.716;8.962;2023-12-29T14:46:16;3.00;;;1.15;;
71104;SDS011;58760;48.716;8.962;2023-12-29T14:48:41;2.33;;;1.05;;
71104;SDS011;58760;48.716;8.962;2023-12-29T14:51:08;2.75;;;1.20;;
71104;SDS011;58760;48.716;8.962;2023-12-29T14:53:33;3.17;;;0.90;;
71104;SDS011;58760;48.716;8.962;2023-12-29T14:55:59;2.50;;;1.10;;
71104;SDS011;58760;48.716;8.962;2023-12-29T14:58:24;2.38;;;1.02;;
71104;SDS011;58760;48.716;8.962;2023-12-29T15:00:49;3.28;;;1.20;;
71104;SDS011;58760;48.716;8.962;2023-12-29T15:03:15;1.60;;;0.80;;
71104;SDS011;58760;48.716;8.962;2023-12-29T15:05:42;1.98;;;0.90;;
71104;SDS011;58760;48.716;8.962;2023-12-29T15:10:34;1.92;;;0.98;;
71104;SDS011;58760;48.716;8.962;2023-12-29T15:12:59;3.80;;;1.00;;
71104;SDS011;58760;48.716;8.962;2023-12-29T15:15:25;3.47;;;1.10;;
71104;SDS011;58760;48.716;8.962;2023-12-29T15:17:50;1.48;;;0.82;;